SNOW

Not for real navigation. The accuracy of this data is not assured See disclaimer for more information



ICAO NAME COUNTRY WIND Kt GUST Kt VIS m TEMP/DEW C BARO METAR
KCBK 6 0 400 3/3 29.86 KCBK 261235Z AUTO 10006KT 0.25SM -SN OVC001 03/03 A2986 RMK AO2
KC07 8 14 400 -3/-4 29.95 KC07 261234Z AUTO 26008G14KT 230V310 0.25SM +SN OVC002 M03/M04 A2995 RMK AO2 P0004
KCPW Pagosa Springs, Wolf Creek Pas CO United States 5 0 400 -7/-7 29.97 KCPW 261229Z AUTO 26005KT 0.25SM -SN OVC001 M07/M07 A2997 RMK AO2
PAMY Mekoryuk, Mekoryuk Airport AK United States 3 0 400 -16/-18 29.88 PAMY 261236Z AUTO 08003KT 0.25SM -SN FZFG VV001 M16/M18 A2988 RMK AO2 SNB23 P0000 FZRANO
ESUT 21 32 700 0/-2 29.68 ESUT 261220Z AUTO 32021G32KT 290V350 0700 R33/0800N SN VV015 M00/M02 Q1005 RESHSN

Show more